Jacana, Brazil
Current Conditions -  °F | °C
As of 5:00 AM on Saturday 25 Oct 2014 (Local Time) from SBKG Reporting Station
Haze Haze  
Wind Chill: 68°   Ceiling: Unl
Heat Index: 68°   Visibility: 3mi
Dew Point: 68°   Wind: 3mph
Humidity: 100%   Direction: 130°SE
Pressure: 29.97"   Gusts: NA
Location:  6.4°S, 36.23°W
Report Text: SBKG 250800Z 13003KT 5000 BR SCT007 SCT070 20/20 Q1015
Loading
Personal Weather Stations






























Interactive Weather Map
Tropical Storm Tracking
New forecast layout! Learn more

10-Day Weather Forecast

Advertisements
Track Severe Weather on mobile